Aviation Digital Data Service (ADDS)

Output produced by METARs form (0036 UTC 21 February 2017)
found at http://aviationweather.gov/adds/metars/
 
KLAX 210032Z 2101/2206 VRB03KT 4SM -SHRA BR BKN012 OVC025 
     TEMPO 2102/2104 2SM -RA BR BKN007 OVC012 
     FM210700 10006KT 6SM -SHRA BKN025 OVC040 
     FM212000 25008KT 6SM BR VCSH BKN025 BKN050 
     FM220300 27005KT P6SM SCT025 SCT050